Time;durP1;ratioP1;P1;durP2;ratioP2;P2;SDS_P1;SDS_P2;PMS_P1;PMS_P2;Temp;Humidity;BMP_temperature;BMP_pressure;BME280_temperature;BME280_humidity;BME280_pressure;Samples;Min_cycle;Max_cycle;Signal;HPM_P1;HPM_P2
2022/09/13 12:09:07;;;;;;;4.73;2.80;;;;;;;16.21;64.21;101137.66;5139746;23;19926;-75
2022/09/13 12:11:38;;;;;;;4.03;2.70;;;;;;;16.21;64.41;101122.38;4959240;29;20047;-78
2022/09/13 12:14:10;;;;;;;7.07;2.43;;;;;;;16.42;64.50;101130.44;4958342;28;20062;-78
2022/09/13 12:16:47;;;;;;;5.30;2.50;;;;;;;16.64;64.04;101125.88;4952212;28;20048;-79
2022/09/13 12:19:21;;;;;;;6.43;2.53;;;;;;;16.78;62.70;101132.25;4962836;28;20047;-80
2022/09/13 12:21:50;;;;;;;5.53;2.50;;;;;;;16.79;62.50;101125.84;4975615;28;20031;-74
2022/09/13 12:24:17;;;;;;;7.53;2.95;;;;;;;16.69;62.76;101110.03;4974451;28;20035;-77
2022/09/13 12:26:58;;;;;;;4.97;2.23;;;;;;;16.84;62.07;101123.41;4968808;28;20043;-78
2022/09/13 12:29:44;;;;;;;5.53;2.73;;;;;;;16.90;61.97;101111.84;4956228;28;20055;-78
2022/09/13 12:32:17;;;;;;;4.90;2.47;;;;;;;17.11;61.20;101118.22;4955557;28;20042;-77
2022/09/13 12:34:59;;;;;;;6.20;2.50;;;;;;;17.07;60.84;101115.09;4956218;28;20158;-78
2022/09/13 12:37:34;;;;;;;5.97;2.93;;;;;;;17.01;61.05;101119.38;4955573;29;20043;-74
2022/09/13 12:40:22;;;;;;;4.50;2.83;;;;;;;16.98;61.21;101121.63;4957091;28;20082;-79
2022/09/13 12:43:13;;;;;;;;;;;;;;;17.03;61.68;101111.94;4954150;29;20031;-80
2022/09/13 12:45:53;;;;;;;5.17;2.43;;;;;;;16.95;61.18;101108.56;4952105;29;19918;-79
2022/09/13 12:48:28;;;;;;;3.67;2.67;;;;;;;16.94;61.61;101112.28;4954986;28;20410;-76
2022/09/13 12:51:23;;;;;;;5.33;2.80;;;;;;;16.84;61.88;101115.34;4956423;28;20039;-81
2022/09/13 12:54:08;;;;;;;5.47;2.73;;;;;;;16.69;62.27;101110.03;4956442;28;20457;-80
2022/09/13 12:57:20;;;;;;;4.27;2.80;;;;;;;16.60;62.02;101111.16;4956006;28;20051;-77
2022/09/13 13:00:07;;;;;;;6.50;3.67;;;;;;;16.37;63.29;101097.09;4927143;29;20513;-76
2022/09/13 13:02:48;;;;;;;7.70;3.20;;;;;;;16.36;63.56;101109.69;4955376;28;20094;-78
2022/09/13 13:05:30;;;;;;;9.47;3.80;;;;;;;16.25;63.88;101110.22;4955620;28;20069;-79
2022/09/13 13:08:01;;;;;;;9.53;4.20;;;;;;;16.14;62.92;101078.47;4953744;28;20106;-77
2022/09/13 13:10:32;;;;;;;9.37;3.67;;;;;;;16.28;63.50;101107.13;4955217;28;20093;-76
2022/09/13 13:13:30;;;;;;;7.00;3.17;;;;;;;16.21;63.88;101095.50;4955224;28;20561;-77
2022/09/13 13:15:58;;;;;;;6.70;3.25;;;;;;;16.20;63.48;101103.75;4955410;28;20079;-76
2022/09/13 13:18:29;;;;;;;7.97;3.43;;;;;;;16.17;63.16;101094.19;4954947;28;20129;-77
2022/09/13 13:20:55;;;;;;;7.57;3.90;;;;;;;16.19;64.16;101086.81;4955321;28;20038;-77
2022/09/13 13:23:45;;;;;;;3.73;2.57;;;;;;;16.21;62.90;101090.13;4954903;28;20179;-81
2022/09/13 13:27:11;;;;;;;8.63;3.57;;;;;;;16.21;63.24;101084.75;4941238;29;20054;-85
2022/09/13 13:30:35;;;;;;;4.77;2.87;;;;;;;16.30;63.58;101086.28;4944657;29;20458;-79
2022/09/13 13:33:17;;;;;;;5.13;3.30;;;;;;;16.23;62.79;101071.94;4958781;28;20043;-80
2022/09/13 13:35:46;;;;;;;4.97;3.00;;;;;;;16.21;63.69;101078.53;4956127;29;20035;-80
2022/09/13 13:38:46;;;;;;;8.17;3.53;;;;;;;16.16;64.56;101067.50;4956219;29;20913;-80
2022/09/13 13:41:35;;;;;;;6.97;3.83;;;;;;;16.13;64.67;101082.16;4955653;28;20039;-79
2022/09/13 13:44:27;;;;;;;5.53;3.27;;;;;;;16.00;63.91;101071.28;4956849;28;20043;-84
2022/09/13 13:47:13;;;;;;;8.33;3.80;;;;;;;15.85;64.37;101067.81;4946947;29;20106;-81
2022/09/13 13:49:45;;;;;;;12.43;3.53;;;;;;;15.76;65.28;101054.50;4954201;29;20039;-80
2022/09/13 13:52:21;;;;;;;8.67;3.20;;;;;;;15.86;64.14;101058.72;4934700;29;20043;-81
2022/09/13 13:54:51;;;;;;;4.63;3.63;;;;;;;15.96;64.71;101064.66;4934760;29;20040;-84
2022/09/13 13:57:47;;;;;;;7.53;4.03;;;;;;;15.89;63.18;101034.16;4936476;29;20040;-86
2022/09/13 14:00:16;;;;;;;8.67;4.07;;;;;;;15.92;63.29;101042.72;4936933;29;20111;-86
2022/09/13 14:02:48;;;;;;;6.60;3.33;;;;;;;15.99;62.75;101046.28;4947527;29;20051;-80
2022/09/13 14:05:31;;;;;;;4.13;2.80;;;;;;;15.94;63.27;101042.50;4955936;28;20039;-85
2022/09/13 14:08:11;;;;;;;6.63;3.17;;;;;;;15.94;63.88;101037.16;4956429;28;20039;-85
2022/09/13 14:14:50;;;;;;;4.77;2.90;;;;;;;16.03;64.28;101033.28;4935556;29;20063;-80
2022/09/13 14:17:53;;;;;;;6.90;3.13;;;;;;;16.08;63.64;101031.69;4933955;29;20050;-83
2022/09/13 14:20:41;;;;;;;3.93;2.73;;;;;;;16.01;63.90;101013.84;4937283;29;20074;-81
2022/09/13 14:23:21;;;;;;;8.60;3.47;;;;;;;15.82;64.12;100976.88;4951480;29;20049;-84
2022/09/13 14:25:55;;;;;;;5.90;3.40;;;;;;;16.16;63.96;101036.09;4950046;29;20043;-80
2022/09/13 14:28:21;;;;;;;5.83;3.70;;;;;;;16.06;65.11;101022.16;4950192;29;20093;-81
2022/09/13 14:30:53;;;;;;;6.70;3.50;;;;;;;15.99;64.15;101027.47;4955306;28;20435;-85
2022/09/13 14:33:37;;;;;;;7.77;4.00;;;;;;;15.88;64.84;101027.13;4955193;28;20043;-80
2022/09/13 14:36:14;;;;;;;9.60;4.53;;;;;;;15.73;65.30;101019.16;4953026;29;20043;-81
2022/09/13 14:38:52;;;;;;;5.23;3.57;;;;;;;15.62;65.93;100993.63;4953067;29;20509;-77
2022/09/13 14:41:31;;;;;;;4.53;3.57;;;;;;;15.50;66.04;100984.38;4954161;28;20043;-80
2022/09/13 14:44:20;;;;;;;4.50;3.10;;;;;;;15.86;65.27;101027.31;4955475;28;20032;-81
2022/09/13 14:47:13;;;;;;;3.70;2.53;;;;;;;15.61;64.09;100973.19;4953714;28;20031;-79
2022/09/13 14:49:48;;;;;;;5.00;2.23;;;;;;;15.86;64.09;101015.75;4954035;28;20127;-79
2022/09/13 14:52:45;;;;;;;4.57;2.93;;;;;;;15.80;63.39;101017.34;4953706;29;20646;-80
2022/09/13 14:55:23;;;;;;;3.73;2.40;;;;;;;15.56;64.99;100998.88;4953546;28;20048;-81
2022/09/13 14:58:02;;;;;;;3.93;2.40;;;;;;;15.50;64.92;101000.47;4953140;28;20043;-82
2022/09/13 15:00:31;;;;;;;5.67;3.37;;;;;;;15.46;64.90;101002.69;4953580;28;20086;-79
2022/09/13 15:03:01;;;;;;;4.37;2.40;;;;;;;15.39;64.16;100998.28;4953714;28;20035;-80
2022/09/13 15:05:31;;;;;;;3.10;2.57;;;;;;;15.37;65.06;100994.97;4953916;28;20129;-80
2022/09/13 15:07:57;;;;;;;5.17;3.40;;;;;;;15.42;65.42;101004.09;4953166;29;20075;-80
2022/09/13 15:10:35;;;;;;;7.70;4.27;;;;;;;15.44;65.54;101002.06;4956166;28;20438;-79
2022/09/13 15:13:08;;;;;;;5.23;2.83;;;;;;;15.48;64.81;101003.34;4957391;28;20562;-79
2022/09/13 15:15:37;;;;;;;6.67;3.27;;;;;;;15.46;64.21;101004.56;4957771;28;20046;-79
2022/09/13 15:18:19;;;;;;;6.83;4.37;;;;;;;15.33;64.77;100982.94;4956740;29;20047;-81
2022/09/13 15:21:05;;;;;;;7.03;3.43;;;;;;;15.43;65.05;101000.41;4957107;28;20031;-77
2022/09/13 15:23:38;;;;;;;5.80;3.37;;;;;;;15.43;65.27;100994.19;4957136;28;20502;-79
2022/09/13 15:26:20;;;;;;;11.30;3.70;;;;;;;15.43;65.46;101002.25;4956446;28;20086;-77
2022/09/13 15:29:04;;;;;;;14.17;3.63;;;;;;;15.26;65.69;100979.31;4956864;28;20490;-74
2022/09/13 15:31:34;;;;;;;7.90;3.03;;;;;;;15.34;65.59;101006.91;4957101;28;20041;-74
2022/09/13 15:34:21;;;;;;;7.93;3.53;;;;;;;15.35;66.20;101000.50;4956814;28;20533;-77
2022/09/13 15:36:49;;;;;;;6.67;3.60;;;;;;;15.28;65.96;100999.56;4956976;28;20126;-76
2022/09/13 15:39:20;;;;;;;9.98;2.58;;;;;;;15.24;65.96;100995.59;4957096;28;20043;-79
2022/09/13 15:41:59;;;;;;;4.50;2.77;;;;;;;15.22;66.46;101000.34;4956016;29;20094;-75
2022/09/13 15:44:26;;;;;;;4.93;2.57;;;;;;;15.19;66.49;101006.91;4956691;28;20169;-75
2022/09/13 15:47:11;;;;;;;6.60;3.87;;;;;;;15.06;66.46;100982.59;4957746;28;20390;-76
2022/09/13 15:49:39;;;;;;;6.87;2.57;;;;;;;15.09;66.90;101001.00;4957264;28;20494;-75
2022/09/13 15:52:09;;;;;;;5.37;3.00;;;;;;;15.05;67.36;100991.66;4957335;28;20046;-80
2022/09/13 15:54:40;;;;;;;8.80;3.97;;;;;;;15.10;67.39;101005.34;4955816;28;20066;-74
2022/09/13 15:57:22;;;;;;;6.00;2.90;;;;;;;15.08;67.75;100993.16;4956182;28;20043;-77
2022/09/13 15:59:48;;;;;;;6.50;2.63;;;;;;;15.05;68.11;100990.84;4956660;28;20039;-76
2022/09/13 16:02:39;;;;;;;4.73;3.43;;;;;;;15.04;67.72;100998.06;4956402;28;20458;-79
2022/09/13 16:05:07;;;;;;;7.40;3.20;;;;;;;14.94;67.89;100989.44;4955600;28;20048;-77
2022/09/13 16:07:33;;;;;;;5.20;2.90;;;;;;;14.94;68.29;101000.16;4955240;28;20031;-77
2022/09/13 16:10:00;;;;;;;5.77;2.73;;;;;;;14.72;68.05;100969.75;4955471;29;20253;-78
2022/09/13 16:12:26;;;;;;;6.83;2.77;;;;;;;14.86;67.99;100993.06;4955200;28;20047;-77
2022/09/13 16:14:53;;;;;;;6.97;2.83;;;;;;;14.85;68.44;100998.59;4955960;28;20118;-75
2022/09/13 16:17:26;;;;;;;5.97;3.20;;;;;;;14.80;68.50;100992.97;4956181;28;20410;-75
2022/09/13 16:19:52;;;;;;;8.53;3.30;;;;;;;14.84;68.66;101004.97;4954397;29;20160;-77
2022/09/13 16:22:18;;;;;;;5.20;2.83;;;;;;;14.81;68.55;101000.00;4955170;28;20031;-74
2022/09/13 16:24:43;;;;;;;8.27;3.50;;;;;;;14.79;68.42;101002.03;4956583;28;20046;-85
2022/09/13 16:27:15;;;;;;;13.80;3.73;;;;;;;14.80;68.70;101003.69;4956427;28;20034;-76
2022/09/13 16:29:44;;;;;;;6.03;3.17;;;;;;;14.75;69.16;100998.06;4955263;29;20483;-79
2022/09/13 16:32:10;;;;;;;10.20;3.07;;;;;;;14.77;68.58;101009.41;4955900;28;20125;-77
2022/09/13 16:34:36;;;;;;;7.17;2.83;;;;;;;14.78;68.71;101009.25;4959987;28;20035;-77
2022/09/13 16:37:02;;;;;;;4.13;2.97;;;;;;;14.76;69.17;101013.97;4962266;29;20134;-76
2022/09/13 16:39:28;;;;;;;3.93;3.17;;;;;;;14.72;68.63;101011.78;4963180;29;20430;-79
2022/09/13 16:41:53;;;;;;;6.07;3.00;;;;;;;14.64;68.94;101004.69;4962007;28;20045;-77
2022/09/13 16:44:19;;;;;;;6.37;2.80;;;;;;;14.64;68.85;101004.69;4955906;28;20532;-78
2022/09/13 16:46:45;;;;;;;8.97;2.70;;;;;;;14.64;69.61;101001.16;4955950;28;20043;-76
2022/09/13 16:49:10;;;;;;;12.50;3.53;;;;;;;14.66;69.53;100996.44;4938634;29;20151;-76
2022/09/13 16:51:36;;;;;;;8.87;3.90;;;;;;;14.62;69.54;101003.19;4956337;28;20035;-77
2022/09/13 16:54:05;;;;;;;8.63;3.23;;;;;;;14.55;69.96;101003.94;4954548;29;20130;-75
2022/09/13 16:56:31;;;;;;;10.83;3.90;;;;;;;14.55;69.82;100998.56;4955520;28;20129;-73
2022/09/13 16:58:56;;;;;;;11.07;3.50;;;;;;;14.53;70.19;100991.75;4954020;29;20043;-78
2022/09/13 17:01:26;;;;;;;7.93;3.53;;;;;;;14.54;70.48;101004.94;4955923;28;20478;-76
2022/09/13 17:03:53;;;;;;;6.60;3.53;;;;;;;14.45;70.67;100984.59;4954195;29;20035;-75
2022/09/13 17:06:20;;;;;;;8.27;3.37;;;;;;;14.45;70.77;100989.94;4955209;28;20039;-75
2022/09/13 17:08:50;;;;;;;5.00;3.40;;;;;;;14.36;71.01;100985.66;4953126;29;20467;-77
2022/09/13 17:11:20;;;;;;;9.43;3.53;;;;;;;14.32;71.52;100989.72;4955207;28;20071;-75
2022/09/13 17:13:46;;;;;;;8.30;3.67;;;;;;;14.34;71.28;100997.56;4953234;29;20521;-74
2022/09/13 17:16:27;;;;;;;10.23;3.77;;;;;;;14.32;71.40;100995.06;4953468;29;20077;-76
2022/09/13 17:18:56;;;;;;;11.60;3.57;;;;;;;14.32;71.64;100995.06;4953641;29;20097;-77
2022/09/13 17:21:26;;;;;;;7.30;3.50;;;;;;;14.32;71.73;100989.72;4954957;28;20501;-77
2022/09/13 17:23:52;;;;;;;9.33;3.27;;;;;;;14.31;71.33;100992.56;4954908;28;20027;-74
2022/09/13 17:26:17;;;;;;;7.27;3.10;;;;;;;14.30;71.68;100991.75;4953557;29;20498;-76
2022/09/13 17:28:43;;;;;;;10.33;3.60;;;;;;;14.27;72.01;100981.41;4954464;28;20054;-76
2022/09/13 17:31:09;;;;;;;5.03;3.10;;;;;;;14.27;71.35;100981.41;4953504;29;20049;-77
2022/09/13 17:33:34;;;;;;;8.83;4.07;;;;;;;14.24;71.37;100982.59;4955026;28;20126;-77
2022/09/13 17:36:05;;;;;;;8.97;3.33;;;;;;;14.25;71.61;100978.06;4955986;28;20125;-77
2022/09/13 17:38:31;;;;;;;5.57;3.40;;;;;;;14.26;71.79;100985.94;4954653;29;20491;-76
2022/09/13 17:41:25;;;;;;;14.17;3.53;;;;;;;14.24;71.87;100965.69;4956186;28;20041;-76
2022/09/13 17:43:52;;;;;;;6.90;3.33;;;;;;;14.13;71.60;100950.03;4954693;28;20046;-77
2022/09/13 17:46:21;;;;;;;12.73;4.07;;;;;;;14.20;71.81;100964.38;4954518;28;20039;-77
2022/09/13 17:48:47;;;;;;;10.48;3.40;;;;;;;14.25;72.09;100978.91;4955006;28;20486;-77
2022/09/13 17:51:32;;;;;;;6.93;3.60;;;;;;;14.23;72.15;100956.81;4953731;29;20054;-75
2022/09/13 17:54:02;;;;;;;9.90;4.20;;;;;;;14.19;72.69;100958.19;4954790;28;20043;-77
2022/09/13 17:56:33;;;;;;;5.93;4.50;;;;;;;14.19;73.18;100960.06;4955298;28;20110;-76
2022/09/13 17:59:10;;;;;;;11.97;5.33;;;;;;;14.21;72.83;100955.34;4953373;29;20051;-75
2022/09/13 18:01:41;;;;;;;9.63;5.03;;;;;;;14.16;73.17;100955.03;4955168;28;20031;-78
2022/09/13 18:04:07;;;;;;;12.77;4.40;;;;;;;14.14;72.75;100954.38;4954029;29;20486;-77
2022/09/13 18:06:35;;;;;;;7.73;4.83;;;;;;;14.12;72.79;100951.06;4954380;28;20046;-75
2022/09/13 18:09:05;;;;;;;8.37;4.70;;;;;;;14.08;73.40;100950.59;4952665;29;20047;-76
2022/09/13 18:11:33;;;;;;;12.63;6.17;;;;;;;14.09;73.74;100951.41;4952972;28;20115;-77
2022/09/13 18:13:58;;;;;;;12.75;5.15;;;;;;;14.06;73.49;100946.41;4952804;28;20047;-75
2022/09/13 18:16:29;;;;;;;10.97;7.43;;;;;;;14.03;73.71;100944.94;4953365;28;20134;-76
2022/09/13 18:18:58;;;;;;;13.83;4.67;;;;;;;13.90;73.66;100923.31;4953376;28;20031;-77
2022/09/13 18:21:26;;;;;;;11.13;5.50;;;;;;;13.98;73.94;100944.66;4953607;28;20573;-76
2022/09/13 18:23:54;;;;;;;11.43;4.80;;;;;;;14.00;74.49;100936.44;4953138;29;20042;-77
2022/09/13 18:26:22;;;;;;;10.50;5.00;;;;;;;13.95;74.41;100935.13;4958806;28;20027;-76
2022/09/13 18:28:54;;;;;;;10.88;5.72;;;;;;;13.97;74.39;100936.81;4973505;28;20094;-75
2022/09/13 18:31:24;;;;;;;22.87;8.60;;;;;;;13.99;74.73;100940.13;4973499;29;20059;-76
2022/09/13 18:34:01;;;;;;;24.13;6.63;;;;;;;13.94;74.66;100924.63;4968668;29;20042;-76
2022/09/13 18:36:28;;;;;;;7.23;5.90;;;;;;;13.97;74.14;100929.59;4961082;28;20050;-75
2022/09/13 18:39:25;;;;;;;13.93;7.20;;;;;;;13.97;74.55;100921.56;4967193;28;20559;-74
2022/09/13 18:42:08;;;;;;;11.93;6.23;;;;;;;13.70;74.59;100880.13;4951821;29;20032;-77
2022/09/13 18:44:35;;;;;;;16.10;6.53;;;;;;;13.76;75.14;100884.75;4964896;28;20182;-76
2022/09/13 18:47:03;;;;;;;11.83;4.80;;;;;;;13.85;74.26;100905.09;4959496;29;20046;-75
2022/09/13 18:49:29;;;;;;;16.17;5.28;;;;;;;13.85;74.44;100913.13;4960870;28;20035;-76
2022/09/13 18:51:54;;;;;;;16.73;5.63;;;;;;;13.85;74.17;100913.13;4960116;28;20041;-76
2022/09/13 18:54:23;;;;;;;15.30;5.93;;;;;;;13.82;74.40;100907.28;4958705;28;20134;-76
2022/09/13 18:56:48;;;;;;;18.35;6.63;;;;;;;13.80;75.18;100910.16;4960076;29;20070;-76
2022/09/13 18:59:14;;;;;;;13.10;5.63;;;;;;;13.76;75.14;100894.63;4958720;28;20446;-76
2022/09/13 19:01:41;;;;;;;16.47;6.13;;;;;;;13.83;75.48;100907.13;4958185;29;20123;-76
2022/09/13 19:04:13;;;;;;;12.67;5.50;;;;;;;13.83;74.93;100908.97;4958144;28;20031;-76
2022/09/13 19:06:48;;;;;;;16.93;6.23;;;;;;;13.79;75.22;100899.63;4960519;28;20526;-80
2022/09/13 19:09:15;;;;;;;23.63;6.20;;;;;;;13.78;75.05;100890.75;4962820;28;20063;-77
2022/09/13 19:11:45;;;;;;;20.43;6.10;;;;;;;13.76;75.68;100886.59;4964131;28;20130;-78
2022/09/13 19:14:22;;;;;;;11.73;5.47;;;;;;;13.81;75.52;100895.75;4964023;29;20039;-76
2022/09/13 19:16:55;;;;;;;10.30;5.13;;;;;;;13.72;75.71;100882.63;4961711;28;20544;-78
2022/09/13 19:19:21;;;;;;;21.33;7.07;;;;;;;13.78;76.08;100893.44;4956818;29;20094;-78
2022/09/13 19:21:46;;;;;;;13.47;5.47;;;;;;;13.76;75.80;100892.78;4957255;28;20039;-77
2022/09/13 19:24:38;;;;;;;10.77;5.33;;;;;;;13.79;75.85;100894.28;4957221;29;20093;-78
2022/09/13 19:27:04;;;;;;;16.83;5.60;;;;;;;13.77;76.25;100886.44;4957042;28;20418;-77
2022/09/13 19:29:29;;;;;;;16.40;5.90;;;;;;;13.74;76.19;100883.28;4956678;28;20045;-78
2022/09/13 19:31:55;;;;;;;21.27;6.87;;;;;;;13.68;76.41;100868.78;4956704;28;20035;-76
2022/09/13 19:34:22;;;;;;;13.23;5.37;;;;;;;13.69;76.15;100873.13;4957160;28;20042;-79
2022/09/13 19:36:51;;;;;;;13.93;5.10;;;;;;;13.71;76.01;100884.47;4957029;28;20130;-77
2022/09/13 19:39:16;;;;;;;11.70;6.13;;;;;;;13.45;75.99;100836.69;4957338;28;20035;-77
2022/09/13 19:41:42;;;;;;;15.03;5.47;;;;;;;13.70;76.86;100877.47;4956826;28;20050;-78
2022/09/13 19:44:09;;;;;;;11.40;6.13;;;;;;;13.69;76.92;100864.25;4955673;29;20051;-78
2022/09/13 19:46:38;;;;;;;27.17;6.67;;;;;;;13.70;76.27;100865.91;4958339;28;20072;-78
2022/09/13 19:49:05;;;;;;;11.33;6.57;;;;;;;13.71;76.64;100862.22;4941073;29;20044;-77
2022/09/13 19:51:36;;;;;;;12.17;6.00;;;;;;;13.70;76.70;100866.75;4958600;28;20047;-79
2022/09/13 19:54:06;;;;;;;11.33;5.47;;;;;;;13.70;76.67;100861.41;4957992;29;20035;-78
2022/09/13 19:56:38;;;;;;;7.83;4.63;;;;;;;13.60;76.53;100845.59;4958292;28;20049;-78
2022/09/13 19:59:06;;;;;;;13.57;6.13;;;;;;;13.66;76.65;100857.44;4961506;28;20047;-78
2022/09/13 20:01:41;;;;;;;13.13;5.63;;;;;;;13.64;76.78;100846.91;4967231;28;20039;-77
2022/09/13 20:04:11;;;;;;;9.77;5.03;;;;;;;13.69;76.98;100859.75;4965286;29;20152;-81
2022/09/13 20:06:40;;;;;;;10.73;5.33;;;;;;;13.68;77.11;100866.09;4959311;28;20457;-80
2022/09/13 20:09:16;;;;;;;6.43;4.80;;;;;;;13.69;76.67;100859.75;4958171;28;20402;-80
2022/09/13 20:11:44;;;;;;;10.52;4.40;;;;;;;13.63;76.60;100847.09;4956698;28;20129;-77
2022/09/13 20:14:14;;;;;;;10.90;4.67;;;;;;;13.57;77.00;100839.75;4956525;28;20159;-78
2022/09/13 20:16:41;;;;;;;8.03;4.83;;;;;;;13.61;76.69;100846.44;4956130;28;20039;-78
2022/09/13 20:19:08;;;;;;;12.17;4.63;;;;;;;13.55;76.85;100837.25;4956303;28;20074;-79
2022/09/13 20:21:35;;;;;;;8.33;4.37;;;;;;;13.51;77.36;100840.47;4954705;29;20042;-79
2022/09/13 20:24:03;;;;;;;6.77;5.40;;;;;;;13.50;77.73;100833.47;4956527;28;20031;-79
2022/09/13 20:26:32;;;;;;;6.43;4.47;;;;;;;13.45;78.01;100822.47;4957061;28;20054;-76
2022/09/13 20:29:03;;;;;;;9.20;5.17;;;;;;;13.48;78.18;100830.13;4956249;28;20039;-79
2022/09/13 20:31:30;;;;;;;7.40;4.97;;;;;;;13.46;78.23;100835.66;4956214;28;20058;-79
2022/09/13 20:33:58;;;;;;;7.67;4.23;;;;;;;13.46;78.43;100826.81;4956359;28;20035;-79
2022/09/13 20:36:26;;;;;;;9.20;5.18;;;;;;;13.43;78.14;100828.00;4956189;28;20126;-81
2022/09/13 20:38:53;;;;;;;12.27;4.87;;;;;;;13.42;78.64;100825.50;4960957;28;20046;-78
2022/09/13 20:41:20;;;;;;;10.23;4.80;;;;;;;13.36;78.46;100810.19;4962900;28;20562;-79
2022/09/13 20:43:47;;;;;;;8.07;5.97;;;;;;;13.12;78.32;100769.22;4961302;28;20035;-78
2022/09/13 20:46:14;;;;;;;6.13;4.30;;;;;;;13.38;78.24;100802.81;4963710;28;20035;-78
2022/09/13 20:48:40;;;;;;;5.83;4.23;;;;;;;13.37;78.42;100817.19;4964917;28;20053;-78
2022/09/13 20:51:10;;;;;;;7.53;4.87;;;;;;;13.35;78.70;100813.88;4963869;28;20035;-80
2022/09/13 20:53:36;;;;;;;15.03;5.97;;;;;;;13.29;78.74;100805.53;4961428;28;20037;-79
2022/09/13 20:56:16;;;;;;;8.87;4.53;;;;;;;13.35;78.63;100808.53;4966178;28;20051;-79
2022/09/13 20:58:44;;;;;;;6.27;4.43;;;;;;;13.31;78.63;100806.22;4970500;28;20039;-76
2022/09/13 21:01:18;;;;;;;10.93;4.37;;;;;;;13.34;78.47;100802.34;4974602;28;20086;-76
2022/09/13 21:03:45;;;;;;;11.27;5.13;;;;;;;13.29;78.52;100789.47;4978454;28;20019;-79
2022/09/13 21:06:10;;;;;;;9.00;5.10;;;;;;;13.33;78.96;100793.50;4965245;28;20073;-79
2022/09/13 21:08:43;;;;;;;11.30;4.77;;;;;;;13.36;78.76;100786.13;4956682;28;20433;-79
2022/09/13 21:11:12;;;;;;;9.33;4.30;;;;;;;13.35;78.62;100787.97;4956248;28;20127;-79
2022/09/13 21:13:52;;;;;;;8.53;4.60;;;;;;;13.38;78.78;100787.59;4955938;28;20043;-78
2022/09/13 21:16:24;;;;;;;9.63;5.03;;;;;;;13.23;78.37;100767.97;4955962;28;20042;-78
2022/09/13 21:18:50;;;;;;;9.07;4.80;;;;;;;13.25;78.54;100765.94;4955862;28;20039;-79
2022/09/13 21:21:25;;;;;;;7.83;4.70;;;;;;;13.28;78.61;100779.78;4954572;29;20046;-77
2022/09/13 21:23:51;;;;;;;8.67;5.33;;;;;;;13.29;78.79;100770.75;4954220;29;20043;-78
2022/09/13 21:26:19;;;;;;;8.03;5.23;;;;;;;13.25;78.28;100771.31;4954878;28;20066;-78
2022/09/13 21:28:45;;;;;;;13.38;5.00;;;;;;;13.25;78.72;100777.47;4954868;28;20043;-80
2022/09/13 21:31:16;;;;;;;11.03;5.43;;;;;;;13.23;78.69;100766.13;4954283;29;20058;-79
2022/09/13 21:33:42;;;;;;;12.77;4.77;;;;;;;13.21;78.07;100762.81;4954993;28;20441;-78
2022/09/13 21:36:09;;;;;;;6.90;4.60;;;;;;;13.23;78.51;100763.47;4954580;28;20039;-77
2022/09/13 21:38:35;;;;;;;10.33;6.53;;;;;;;13.20;78.40;100758.47;4954457;28;20554;-78
2022/09/13 21:41:04;;;;;;;8.73;4.93;;;;;;;13.15;78.15;100744.78;4954974;28;20085;-78
2022/09/13 21:43:30;;;;;;;7.50;5.00;;;;;;;13.24;78.20;100758.94;4955254;28;20031;-76
2022/09/13 21:46:12;;;;;;;11.03;5.30;;;;;;;13.21;78.16;100754.78;4965793;28;20046;-78
2022/09/13 21:48:37;;;;;;;8.10;4.17;;;;;;;13.23;77.97;100750.09;4974331;28;20039;-77
2022/09/13 21:51:21;;;;;;;7.57;4.83;;;;;;;13.21;77.92;100744.09;4975231;28;20035;-77
2022/09/13 21:53:49;;;;;;;8.50;5.17;;;;;;;13.19;77.44;100751.47;4962836;28;20402;-78
2022/09/13 21:56:16;;;;;;;9.17;5.00;;;;;;;13.18;77.79;100749.81;4954165;28;20050;-77
2022/09/13 21:59:00;;;;;;;9.07;5.15;;;;;;;13.16;77.54;100746.44;4953094;29;20436;-78
2022/09/13 22:01:31;;;;;;;9.53;4.80;;;;;;;13.09;77.06;100742.00;4954155;28;20042;-78
2022/09/13 22:03:57;;;;;;;7.27;5.60;;;;;;;13.08;77.39;100749.19;4955430;28;20069;-80
2022/09/13 22:06:24;;;;;;;9.33;4.93;;;;;;;12.96;77.69;100722.03;4952748;29;20043;-80
2022/09/13 22:08:55;;;;;;;9.03;4.93;;;;;;;13.05;77.65;100732.69;4954518;28;20058;-77
2022/09/13 22:11:24;;;;;;;5.53;4.40;;;;;;;13.02;77.25;100729.34;4952877;28;20043;-80
2022/09/13 22:13:49;;;;;;;;;;;;;;;13.02;77.10;100731.19;4954450;28;20039;-80
2022/09/13 22:16:23;;;;;;;8.17;5.17;;;;;;;12.91;77.44;100715.56;4953835;28;19918;-79
2022/09/13 22:18:52;;;;;;;8.27;5.20;;;;;;;12.93;77.26;100716.22;4953600;28;20035;-77
2022/09/13 22:21:20;;;;;;;8.05;4.95;;;;;;;12.88;77.24;100715.94;4953531;28;20395;-78
2022/09/13 22:23:46;;;;;;;8.98;5.97;;;;;;;12.84;76.99;100709.28;4954003;28;20035;-79
2022/09/13 22:26:20;;;;;;;9.70;5.70;;;;;;;12.90;77.12;100714.72;4953760;28;20035;-78
2022/09/13 22:28:47;;;;;;;7.40;5.50;;;;;;;12.89;77.33;100718.41;4953747;28;20399;-79
2022/09/13 22:31:19;;;;;;;6.07;4.33;;;;;;;12.85;77.46;100705.59;4953641;28;20032;-74
2022/09/13 22:33:45;;;;;;;18.20;5.30;;;;;;;12.95;77.55;100719.53;4953922;28;20046;-77
2022/09/13 22:36:13;;;;;;;7.53;5.10;;;;;;;12.89;76.94;100710.41;4953822;28;20039;-77
2022/09/13 22:38:40;;;;;;;6.22;4.78;;;;;;;12.91;77.16;100711.03;4953801;28;20058;-78
2022/09/13 22:41:13;;;;;;;8.03;4.83;;;;;;;12.89;77.06;100701.53;4952315;28;20414;-78
2022/09/13 22:43:40;;;;;;;6.90;4.23;;;;;;;12.84;77.23;100706.59;4953991;28;20039;-78
2022/09/13 22:46:17;;;;;;;6.60;4.43;;;;;;;12.83;76.99;100697.75;4954054;28;20065;-77
2022/09/13 22:48:43;;;;;;;6.83;5.33;;;;;;;12.86;77.04;100689.38;4953725;28;20031;-76
2022/09/13 22:51:11;;;;;;;5.90;4.80;;;;;;;12.87;76.64;100698.22;4953591;28;20122;-79
2022/09/13 22:53:39;;;;;;;7.82;4.75;;;;;;;12.89;76.66;100693.53;4953403;28;20142;-77
2022/09/13 22:56:09;;;;;;;5.70;4.50;;;;;;;12.87;76.62;100698.22;4953846;28;20049;-78
2022/09/13 22:58:34;;;;;;;6.67;5.67;;;;;;;12.85;76.82;100684.22;4936978;29;20098;-77
2022/09/13 23:01:03;;;;;;;7.97;4.73;;;;;;;12.81;76.92;100685.59;4953679;28;20431;-78
2022/09/13 23:03:28;;;;;;;7.55;4.95;;;;;;;12.83;76.78;100687.06;4953803;28;20135;-79
2022/09/13 23:05:54;;;;;;;6.57;5.20;;;;;;;12.86;76.84;100680.53;4953581;28;20031;-77
2022/09/13 23:08:21;;;;;;;6.60;4.83;;;;;;;12.79;76.58;100668.91;4953077;28;20058;-77
2022/09/13 23:11:16;;;;;;;6.30;5.13;;;;;;;12.83;76.50;100678.22;4953503;29;20110;-78
2022/09/13 23:13:45;;;;;;;6.60;4.30;;;;;;;12.83;76.76;100675.53;4953692;28;20098;-79
2022/09/13 23:16:14;;;;;;;8.70;5.03;;;;;;;12.82;76.85;100663.19;4952011;29;20039;-78
2022/09/13 23:18:40;;;;;;;8.00;5.20;;;;;;;12.76;76.37;100655.91;4953059;28;20194;-79
2022/09/13 23:21:06;;;;;;;6.90;4.80;;;;;;;12.81;76.71;100665.03;4952416;28;20035;-78
2022/09/13 23:23:32;;;;;;;8.30;5.27;;;;;;;12.76;76.92;100640.69;4953591;28;20085;-79
2022/09/13 23:26:16;;;;;;;7.30;4.63;;;;;;;12.83;76.79;100655.00;4953399;28;20043;-77
2022/09/13 23:28:43;;;;;;;8.67;5.63;;;;;;;12.75;76.80;100635.53;4953063;28;20498;-77
2022/09/13 23:31:17;;;;;;;6.45;4.38;;;;;;;12.79;77.26;100648.34;4953330;28;20051;-76
2022/09/13 23:33:48;;;;;;;8.30;4.70;;;;;;;12.80;76.88;100650.00;4956806;28;20074;-79
2022/09/13 23:36:17;;;;;;;6.20;5.03;;;;;;;12.74;76.53;100640.03;4956791;28;20471;-77
2022/09/13 23:38:47;;;;;;;;;;;;;;;12.78;76.76;100637.84;4957438;28;20050;-78
2022/09/13 23:41:15;;;;;;;10.30;6.93;;;;;;;12.68;77.34;100630.88;4956452;28;19918;-76
2022/09/13 23:43:41;;;;;;;10.75;6.10;;;;;;;12.65;77.03;100628.56;4956793;28;20055;-78
2022/09/13 23:46:07;;;;;;;8.27;5.70;;;;;;;12.71;77.56;100635.03;4956336;28;20122;-77
2022/09/13 23:48:33;;;;;;;9.43;5.67;;;;;;;12.73;77.12;100635.72;4955363;29;20031;-77
2022/09/13 23:51:01;;;;;;;9.20;4.90;;;;;;;12.75;76.37;100640.88;4956769;28;20073;-77
2022/09/13 23:53:27;;;;;;;9.85;5.80;;;;;;;12.68;76.75;100620.19;4956178;28;20047;-77
2022/09/13 23:55:53;;;;;;;11.60;5.70;;;;;;;12.72;76.79;100626.00;4956853;28;20183;-77
2022/09/13 23:58:18;;;;;;;11.27;5.67;;;;;;;12.72;76.82;100620.66;4956311;28;20415;-77
